sensor_id;sensor_type;location;lat;lon;timestamp;temperature;humidity
18321;DHT22;54904;54.350;18.664;2024-03-23T00:54:57;11.00;99.90
18321;DHT22;54904;54.350;18.664;2024-03-23T00:57:24;10.90;99.90
18321;DHT22;54904;54.350;18.664;2024-03-23T00:59:50;10.90;99.90
18321;DHT22;54904;54.350;18.664;2024-03-23T01:02:17;11.00;99.90
18321;DHT22;54904;54.350;18.664;2024-03-23T01:04:43;10.90;99.90
18321;DHT22;54904;54.350;18.664;2024-03-23T01:07:10;10.90;99.90
18321;DHT22;54904;54.350;18.664;2024-03-23T01:09:36;10.90;99.90
18321;DHT22;54904;54.350;18.664;2024-03-23T01:12:06;10.90;99.90
18321;DHT22;54904;54.350;18.664;2024-03-23T01:14:32;10.90;99.90
18321;DHT22;54904;54.350;18.664;2024-03-23T01:16:59;10.90;99.90
18321;DHT22;54904;54.350;18.664;2024-03-23T01:19:26;10.90;99.90
18321;DHT22;54904;54.350;18.664;2024-03-23T01:21:53;10.90;99.90
18321;DHT22;54904;54.350;18.664;2024-03-23T01:24:19;10.90;99.90
18321;DHT22;54904;54.350;18.664;2024-03-23T01:26:46;10.90;99.90
18321;DHT22;54904;54.350;18.664;2024-03-23T01:29:14;10.90;99.90
18321;DHT22;54904;54.350;18.664;2024-03-23T01:31:41;10.90;99.90
18321;DHT22;54904;54.350;18.664;2024-03-23T01:34:07;10.90;99.90
18321;DHT22;54904;54.350;18.664;2024-03-23T01:36:34;10.90;99.90
18321;DHT22;54904;54.350;18.664;2024-03-23T01:39:00;10.90;99.90
18321;DHT22;54904;54.350;18.664;2024-03-23T01:41:27;10.90;99.90
18321;DHT22;54904;54.350;18.664;2024-03-23T01:43:55;10.90;99.90
18321;DHT22;54904;54.350;18.664;2024-03-23T01:46:23;10.90;99.90
18321;DHT22;54904;54.350;18.664;2024-03-23T01:48:50;10.80;99.90
18321;DHT22;54904;54.350;18.664;2024-03-23T01:51:17;10.80;99.90
18321;DHT22;54904;54.350;18.664;2024-03-23T01:53:44;10.80;99.90
18321;DHT22;54904;54.350;18.664;2024-03-23T01:56:11;10.80;99.90
18321;DHT22;54904;54.350;18.664;2024-03-23T01:58:37;10.80;99.90
18321;DHT22;54904;54.350;18.664;2024-03-23T02:01:04;10.80;99.90
18321;DHT22;54904;54.350;18.664;2024-03-23T02:03:32;10.80;99.90
18321;DHT22;54904;54.350;18.664;2024-03-23T02:05:59;10.80;99.90
18321;DHT22;54904;54.350;18.664;2024-03-23T02:08:25;10.80;99.90
18321;DHT22;54904;54.350;18.664;2024-03-23T02:10:52;10.80;99.90
18321;DHT22;54904;54.350;18.664;2024-03-23T02:13:19;10.80;99.90
18321;DHT22;54904;54.350;18.664;2024-03-23T02:15:46;10.80;99.90
18321;DHT22;54904;54.350;18.664;2024-03-23T02:18:12;10.70;99.90
18321;DHT22;54904;54.350;18.664;2024-03-23T02:20:40;10.70;99.90
18321;DHT22;54904;54.350;18.664;2024-03-23T02:23:13;10.70;99.90
18321;DHT22;54904;54.350;18.664;2024-03-23T02:25:40;10.70;99.90
18321;DHT22;54904;54.350;18.664;2024-03-23T02:28:06;10.70;99.90
18321;DHT22;54904;54.350;18.664;2024-03-23T02:30:33;10.70;99.90
18321;DHT22;54904;54.350;18.664;2024-03-23T02:32:59;10.70;99.90
18321;DHT22;54904;54.350;18.664;2024-03-23T02:35:27;10.70;99.90
18321;DHT22;54904;54.350;18.664;2024-03-23T02:37:53;10.70;99.90
18321;DHT22;54904;54.350;18.664;2024-03-23T02:40:23;10.70;99.90
18321;DHT22;54904;54.350;18.664;2024-03-23T02:42:50;10.70;99.90
18321;DHT22;54904;54.350;18.664;2024-03-23T02:45:17;10.70;99.90
18321;DHT22;54904;54.350;18.664;2024-03-23T02:47:43;10.70;99.90
18321;DHT22;54904;54.350;18.664;2024-03-23T02:50:10;10.70;99.90
18321;DHT22;54904;54.350;18.664;2024-03-23T02:52:36;10.70;99.90
18321;DHT22;54904;54.350;18.664;2024-03-23T02:55:03;10.70;99.90
18321;DHT22;54904;54.350;18.664;2024-03-23T02:57:31;10.70;99.90
18321;DHT22;54904;54.350;18.664;2024-03-23T02:59:58;10.70;99.90
18321;DHT22;54904;54.350;18.664;2024-03-23T03:02:24;10.70;99.90
18321;DHT22;54904;54.350;18.664;2024-03-23T03:04:51;10.70;99.90
18321;DHT22;54904;54.350;18.664;2024-03-23T03:07:17;10.70;99.90
18321;DHT22;54904;54.350;18.664;2024-03-23T03:09:44;10.70;99.90
18321;DHT22;54904;54.350;18.664;2024-03-23T03:12:10;10.70;99.90
18321;DHT22;54904;54.350;18.664;2024-03-23T03:14:39;10.70;99.90
18321;DHT22;54904;54.350;18.664;2024-03-23T03:17:05;10.70;99.90
18321;DHT22;54904;54.350;18.664;2024-03-23T03:19:32;10.70;99.90
18321;DHT22;54904;54.350;18.664;2024-03-23T03:21:58;10.70;99.90
18321;DHT22;54904;54.350;18.664;2024-03-23T03:24:25;10.60;99.90
18321;DHT22;54904;54.350;18.664;2024-03-23T03:26:51;10.60;99.90
18321;DHT22;54904;54.350;18.664;2024-03-23T03:29:18;10.60;99.90
18321;DHT22;54904;54.350;18.664;2024-03-23T03:31:45;10.60;99.90
18321;DHT22;54904;54.350;18.664;2024-03-23T03:34:12;10.60;99.90
18321;DHT22;54904;54.350;18.664;2024-03-23T03:36:38;10.60;99.90
18321;DHT22;54904;54.350;18.664;2024-03-23T03:39:05;10.60;99.90
18321;DHT22;54904;54.350;18.664;2024-03-23T03:41:35;10.60;99.90
18321;DHT22;54904;54.350;18.664;2024-03-23T03:44:02;10.60;99.90
18321;DHT22;54904;54.350;18.664;2024-03-23T03:46:28;10.70;99.90
18321;DHT22;54904;54.350;18.664;2024-03-23T03:48:57;10.60;99.90
18321;DHT22;54904;54.350;18.664;2024-03-23T03:51:23;10.60;99.90
18321;DHT22;54904;54.350;18.664;2024-03-23T03:53:50;10.60;99.90
18321;DHT22;54904;54.350;18.664;2024-03-23T03:56:16;9.80;99.90
18321;DHT22;54904;54.350;18.664;2024-03-23T03:58:43;10.70;99.90
18321;DHT22;54904;54.350;18.664;2024-03-23T04:01:09;10.70;99.90
18321;DHT22;54904;54.350;18.664;2024-03-23T04:03:36;10.60;99.90
18321;DHT22;54904;54.350;18.664;2024-03-23T04:06:04;10.60;99.90
18321;DHT22;54904;54.350;18.664;2024-03-23T04:08:31;10.60;99.90
18321;DHT22;54904;54.350;18.664;2024-03-23T04:10:57;10.60;99.90
18321;DHT22;54904;54.350;18.664;2024-03-23T04:13:24;10.60;99.90
18321;DHT22;54904;54.350;18.664;2024-03-23T04:15:54;10.60;99.90
18321;DHT22;54904;54.350;18.664;2024-03-23T04:18:21;10.60;99.90
18321;DHT22;54904;54.350;18.664;2024-03-23T04:20:47;10.60;99.90
18321;DHT22;54904;54.350;18.664;2024-03-23T04:23:15;10.60;99.90
18321;DHT22;54904;54.350;18.664;2024-03-23T04:25:41;10.60;99.90
18321;DHT22;54904;54.350;18.664;2024-03-23T04:28:08;10.50;99.90
18321;DHT22;54904;54.350;18.664;2024-03-23T04:30:34;10.60;99.90
18321;DHT22;54904;54.350;18.664;2024-03-23T04:33:03;10.60;99.90
18321;DHT22;54904;54.350;18.664;2024-03-23T04:35:30;10.50;99.90
18321;DHT22;54904;54.350;18.664;2024-03-23T04:37:56;10.50;99.90
18321;DHT22;54904;54.350;18.664;2024-03-23T04:40:25;10.50;99.90
18321;DHT22;54904;54.350;18.664;2024-03-23T04:42:52;10.40;99.90
18321;DHT22;54904;54.350;18.664;2024-03-23T04:45:19;10.40;99.90
18321;DHT22;54904;54.350;18.664;2024-03-23T04:47:48;10.40;99.90
18321;DHT22;54904;54.350;18.664;2024-03-23T04:50:15;10.40;99.90
18321;DHT22;54904;54.350;18.664;2024-03-23T04:52:42;10.40;99.90
18321;DHT22;54904;54.350;18.664;2024-03-23T04:55:09;10.40;99.90
18321;DHT22;54904;54.350;18.664;2024-03-23T04:57:39;10.40;99.90
18321;DHT22;54904;54.350;18.664;2024-03-23T05:00:06;10.40;99.90
18321;DHT22;54904;54.350;18.664;2024-03-23T05:02:43;10.40;99.90
18321;DHT22;54904;54.350;18.664;2024-03-23T05:05:11;10.40;99.90
18321;DHT22;54904;54.350;18.664;2024-03-23T05:07:38;10.40;99.90
18321;DHT22;54904;54.350;18.664;2024-03-23T05:10:04;10.40;99.90
18321;DHT22;54904;54.350;18.664;2024-03-23T05:12:34;10.40;99.90
18321;DHT22;54904;54.350;18.664;2024-03-23T05:15:01;10.40;99.90
18321;DHT22;54904;54.350;18.664;2024-03-23T05:17:29;10.40;99.90
18321;DHT22;54904;54.350;18.664;2024-03-23T05:19:55;10.40;99.90
18321;DHT22;54904;54.350;18.664;2024-03-23T05:22:22;10.40;99.90
18321;DHT22;54904;54.350;18.664;2024-03-23T05:24:48;10.40;99.90
18321;DHT22;54904;54.350;18.664;2024-03-23T05:27:15;10.40;99.90
18321;DHT22;54904;54.350;18.664;2024-03-23T05:29:41;10.30;99.90
18321;DHT22;54904;54.350;18.664;2024-03-23T05:32:09;10.40;99.90
18321;DHT22;54904;54.350;18.664;2024-03-23T05:34:35;10.40;99.90
18321;DHT22;54904;54.350;18.664;2024-03-23T05:37:02;10.40;99.90
18321;DHT22;54904;54.350;18.664;2024-03-23T05:39:28;10.40;99.90
18321;DHT22;54904;54.350;18.664;2024-03-23T05:41:55;10.40;99.90
18321;DHT22;54904;54.350;18.664;2024-03-23T05:44:21;10.40;99.90
18321;DHT22;54904;54.350;18.664;2024-03-23T05:46:48;10.40;99.90
18321;DHT22;54904;54.350;18.664;2024-03-23T05:49:16;10.40;99.90
18321;DHT22;54904;54.350;18.664;2024-03-23T05:51:43;10.50;99.90
18321;DHT22;54904;54.350;18.664;2024-03-23T05:54:09;10.50;99.90
18321;DHT22;54904;54.350;18.664;2024-03-23T05:56:36;10.50;99.90
18321;DHT22;54904;54.350;18.664;2024-03-23T05:59:02;10.50;99.90
18321;DHT22;54904;54.350;18.664;2024-03-23T06:01:30;10.60;99.90
18321;DHT22;54904;54.350;18.664;2024-03-23T06:03:58;10.60;99.90
18321;DHT22;54904;54.350;18.664;2024-03-23T06:06:28;10.60;99.90
18321;DHT22;54904;54.350;18.664;2024-03-23T06:08:56;10.60;99.90
18321;DHT22;54904;54.350;18.664;2024-03-23T06:11:23;10.70;99.90
18321;DHT22;54904;54.350;18.664;2024-03-23T06:13:49;10.70;99.90
18321;DHT22;54904;54.350;18.664;2024-03-23T06:16:16;10.70;99.90
18321;DHT22;54904;54.350;18.664;2024-03-23T06:18:42;10.70;99.90
18321;DHT22;54904;54.350;18.664;2024-03-23T06:21:13;10.70;99.90
18321;DHT22;54904;54.350;18.664;2024-03-23T06:23:42;10.70;99.90
18321;DHT22;54904;54.350;18.664;2024-03-23T06:26:13;10.70;99.90
18321;DHT22;54904;54.350;18.664;2024-03-23T06:28:40;10.80;99.90
18321;DHT22;54904;54.350;18.664;2024-03-23T06:31:09;10.80;99.90
18321;DHT22;54904;54.350;18.664;2024-03-23T06:33:35;10.70;99.90
18321;DHT22;54904;54.350;18.664;2024-03-23T06:36:02;10.70;99.90
18321;DHT22;54904;54.350;18.664;2024-03-23T06:38:29;10.70;99.90
18321;DHT22;54904;54.350;18.664;2024-03-23T06:40:57;10.70;99.90
18321;DHT22;54904;54.350;18.664;2024-03-23T06:43:23;10.70;99.90
18321;DHT22;54904;54.350;18.664;2024-03-23T06:45:52;10.70;99.90
18321;DHT22;54904;54.350;18.664;2024-03-23T06:48:19;10.70;99.90
18321;DHT22;54904;54.350;18.664;2024-03-23T06:50:46;10.70;99.90
18321;DHT22;54904;54.350;18.664;2024-03-23T06:53:13;10.70;99.90
18321;DHT22;54904;54.350;18.664;2024-03-23T06:55:40;10.70;99.90
18321;DHT22;54904;54.350;18.664;2024-03-23T06:58:08;10.70;99.90
18321;DHT22;54904;54.350;18.664;2024-03-23T07:00:35;10.70;99.90
18321;DHT22;54904;54.350;18.664;2024-03-23T07:03:02;10.70;99.90
18321;DHT22;54904;54.350;18.664;2024-03-23T07:05:29;10.70;99.90
18321;DHT22;54904;54.350;18.664;2024-03-23T07:07:55;10.70;99.90
18321;DHT22;54904;54.350;18.664;2024-03-23T07:10:22;10.70;99.90
18321;DHT22;54904;54.350;18.664;2024-03-23T07:12:49;10.70;99.90
18321;DHT22;54904;54.350;18.664;2024-03-23T07:15:17;10.70;99.90
18321;DHT22;54904;54.350;18.664;2024-03-23T07:17:46;10.70;99.90
18321;DHT22;54904;54.350;18.664;2024-03-23T07:20:13;10.70;99.90
18321;DHT22;54904;54.350;18.664;2024-03-23T07:22:40;10.70;99.90
18321;DHT22;54904;54.350;18.664;2024-03-23T07:25:07;10.70;99.90
18321;DHT22;54904;54.350;18.664;2024-03-23T07:27:33;10.80;99.90
18321;DHT22;54904;54.350;18.664;2024-03-23T07:30:01;10.80;99.90
18321;DHT22;54904;54.350;18.664;2024-03-23T07:32:28;10.80;99.90
18321;DHT22;54904;54.350;18.664;2024-03-23T07:34:55;10.80;99.90
18321;DHT22;54904;54.350;18.664;2024-03-23T07:37:21;10.80;99.90
18321;DHT22;54904;54.350;18.664;2024-03-23T07:39:48;10.80;99.90
18321;DHT22;54904;54.350;18.664;2024-03-23T07:42:14;10.80;99.90
18321;DHT22;54904;54.350;18.664;2024-03-23T07:44:41;10.80;99.90
18321;DHT22;54904;54.350;18.664;2024-03-23T07:47:07;10.90;99.90
18321;DHT22;54904;54.350;18.664;2024-03-23T07:49:35;10.90;99.90
18321;DHT22;54904;54.350;18.664;2024-03-23T07:52:02;10.90;99.90
18321;DHT22;54904;54.350;18.664;2024-03-23T07:54:29;10.90;99.90
18321;DHT22;54904;54.350;18.664;2024-03-23T07:56:55;10.90;99.90
18321;DHT22;54904;54.350;18.664;2024-03-23T07:59:22;10.90;99.90
18321;DHT22;54904;54.350;18.664;2024-03-23T08:01:49;10.90;99.90
18321;DHT22;54904;54.350;18.664;2024-03-23T08:04:15;10.90;99.90
18321;DHT22;54904;54.350;18.664;2024-03-23T08:06:43;10.90;99.90
18321;DHT22;54904;54.350;18.664;2024-03-23T08:09:09;10.90;99.90
18321;DHT22;54904;54.350;18.664;2024-03-23T08:11:36;10.90;99.90
18321;DHT22;54904;54.350;18.664;2024-03-23T08:14:04;10.90;99.90
18321;DHT22;54904;54.350;18.664;2024-03-23T08:16:31;10.80;99.90
18321;DHT22;54904;54.350;18.664;2024-03-23T08:18:57;10.80;99.90
18321;DHT22;54904;54.350;18.664;2024-03-23T08:21:24;10.80;99.90
18321;DHT22;54904;54.350;18.664;2024-03-23T08:23:53;10.80;99.90
18321;DHT22;54904;54.350;18.664;2024-03-23T08:26:20;10.80;99.90
18321;DHT22;54904;54.350;18.664;2024-03-23T08:28:46;10.80;99.90
18321;DHT22;54904;54.350;18.664;2024-03-23T08:31:13;10.80;99.90
18321;DHT22;54904;54.350;18.664;2024-03-23T08:33:40;10.70;99.90
18321;DHT22;54904;54.350;18.664;2024-03-23T08:36:10;10.70;99.90
18321;DHT22;54904;54.350;18.664;2024-03-23T08:38:38;10.70;99.90
18321;DHT22;54904;54.350;18.664;2024-03-23T08:41:07;10.70;99.90
18321;DHT22;54904;54.350;18.664;2024-03-23T08:43:35;10.70;99.90
18321;DHT22;54904;54.350;18.664;2024-03-23T08:46:06;10.80;99.90
18321;DHT22;54904;54.350;18.664;2024-03-23T08:48:32;10.80;99.90
18321;DHT22;54904;54.350;18.664;2024-03-23T08:51:01;10.80;99.90
18321;DHT22;54904;54.350;18.664;2024-03-23T08:53:28;10.80;99.90
18321;DHT22;54904;54.350;18.664;2024-03-23T08:55:55;10.80;99.90
18321;DHT22;54904;54.350;18.664;2024-03-23T08:58:23;10.90;99.90
18321;DHT22;54904;54.350;18.664;2024-03-23T09:00:51;10.80;99.90
18321;DHT22;54904;54.350;18.664;2024-03-23T09:03:17;10.80;99.90
18321;DHT22;54904;54.350;18.664;2024-03-23T09:05:44;10.90;99.90
18321;DHT22;54904;54.350;18.664;2024-03-23T09:08:10;11.00;99.90
18321;DHT22;54904;54.350;18.664;2024-03-23T09:10:39;11.00;99.90
18321;DHT22;54904;54.350;18.664;2024-03-23T09:13:05;11.10;99.90
18321;DHT22;54904;54.350;18.664;2024-03-23T09:15:34;11.10;99.90
18321;DHT22;54904;54.350;18.664;2024-03-23T09:18:01;11.20;99.90
18321;DHT22;54904;54.350;18.664;2024-03-23T09:20:28;11.20;99.90
18321;DHT22;54904;54.350;18.664;2024-03-23T09:22:54;11.20;99.90
18321;DHT22;54904;54.350;18.664;2024-03-23T09:25:21;11.20;99.90
18321;DHT22;54904;54.350;18.664;2024-03-23T09:27:47;11.20;99.90
18321;DHT22;54904;54.350;18.664;2024-03-23T09:30:14;11.20;99.90
18321;DHT22;54904;54.350;18.664;2024-03-23T09:32:43;11.20;99.90
18321;DHT22;54904;54.350;18.664;2024-03-23T09:35:11;11.30;99.90
18321;DHT22;54904;54.350;18.664;2024-03-23T09:37:37;11.30;99.90
18321;DHT22;54904;54.350;18.664;2024-03-23T09:40:06;11.40;99.90
18321;DHT22;54904;54.350;18.664;2024-03-23T09:42:35;11.40;99.90
18321;DHT22;54904;54.350;18.664;2024-03-23T09:45:02;11.50;99.90
18321;DHT22;54904;54.350;18.664;2024-03-23T09:47:31;11.40;99.90
18321;DHT22;54904;54.350;18.664;2024-03-23T09:50:01;11.30;99.90
18321;DHT22;54904;54.350;18.664;2024-03-23T09:52:27;11.30;99.90
18321;DHT22;54904;54.350;18.664;2024-03-23T09:54:54;11.30;99.90
18321;DHT22;54904;54.350;18.664;2024-03-23T09:57:20;11.30;99.90
18321;DHT22;54904;54.350;18.664;2024-03-23T09:59:47;11.20;99.90
18321;DHT22;54904;54.350;18.664;2024-03-23T10:02:15;11.10;99.90
18321;DHT22;54904;54.350;18.664;2024-03-23T10:04:43;11.10;99.90
18321;DHT22;54904;54.350;18.664;2024-03-23T10:07:15;11.10;99.90
18321;DHT22;54904;54.350;18.664;2024-03-23T10:09:43;11.10;99.90
18321;DHT22;54904;54.350;18.664;2024-03-23T10:12:11;11.10;99.90
18321;DHT22;54904;54.350;18.664;2024-03-23T10:14:38;11.00;99.90
18321;DHT22;54904;54.350;18.664;2024-03-23T10:17:15;11.00;99.90
18321;DHT22;54904;54.350;18.664;2024-03-23T10:19:44;11.10;99.90
18321;DHT22;54904;54.350;18.664;2024-03-23T10:22:17;11.10;99.90
18321;DHT22;54904;54.350;18.664;2024-03-23T10:24:43;11.10;99.90
18321;DHT22;54904;54.350;18.664;2024-03-23T10:27:15;11.10;99.90
18321;DHT22;54904;54.350;18.664;2024-03-23T10:29:42;11.10;99.90
18321;DHT22;54904;54.350;18.664;2024-03-23T10:32:10;11.20;99.90
18321;DHT22;54904;54.350;18.664;2024-03-23T10:34:36;11.20;99.90
18321;DHT22;54904;54.350;18.664;2024-03-23T10:37:05;11.30;99.90
18321;DHT22;54904;54.350;18.664;2024-03-23T10:39:34;11.40;99.90
18321;DHT22;54904;54.350;18.664;2024-03-23T10:42:03;11.40;99.90
18321;DHT22;54904;54.350;18.664;2024-03-23T10:44:30;11.40;99.90
18321;DHT22;54904;54.350;18.664;2024-03-23T10:46:58;11.50;99.90
18321;DHT22;54904;54.350;18.664;2024-03-23T10:49:32;11.60;99.90
18321;DHT22;54904;54.350;18.664;2024-03-23T10:52:00;11.60;99.90
18321;DHT22;54904;54.350;18.664;2024-03-23T10:54:27;11.60;99.90
18321;DHT22;54904;54.350;18.664;2024-03-23T10:56:59;11.60;99.90
18321;DHT22;54904;54.350;18.664;2024-03-23T10:59:27;11.70;99.90
18321;DHT22;54904;54.350;18.664;2024-03-23T11:01:56;11.60;99.90
18321;DHT22;54904;54.350;18.664;2024-03-23T11:04:30;11.60;99.90
18321;DHT22;54904;54.350;18.664;2024-03-23T11:06:58;11.70;99.90
18321;DHT22;54904;54.350;18.664;2024-03-23T11:09:40;11.70;99.90
18321;DHT22;54904;54.350;18.664;2024-03-23T11:12:31;11.70;99.90
18321;DHT22;54904;54.350;18.664;2024-03-23T11:15:02;11.60;99.90
18321;DHT22;54904;54.350;18.664;2024-03-23T11:17:30;11.50;99.90
18321;DHT22;54904;54.350;18.664;2024-03-23T11:19:58;11.40;99.90
18321;DHT22;54904;54.350;18.664;2024-03-23T11:22:43;11.40;99.90
18321;DHT22;54904;54.350;18.664;2024-03-23T11:25:17;11.40;99.90
18321;DHT22;54904;54.350;18.664;2024-03-23T11:27:48;11.40;99.90
18321;DHT22;54904;54.350;18.664;2024-03-23T11:30:16;11.40;99.90
18321;DHT22;54904;54.350;18.664;2024-03-23T11:32:45;11.40;99.90
18321;DHT22;54904;54.350;18.664;2024-03-23T11:35:25;11.30;99.90
18321;DHT22;54904;54.350;18.664;2024-03-23T11:38:05;11.30;99.90
18321;DHT22;54904;54.350;18.664;2024-03-23T11:40:32;11.30;99.90
18321;DHT22;54904;54.350;18.664;2024-03-23T11:43:02;11.40;99.90
18321;DHT22;54904;54.350;18.664;2024-03-23T11:45:29;11.40;99.90
18321;DHT22;54904;54.350;18.664;2024-03-23T11:48:08;11.50;99.90
18321;DHT22;54904;54.350;18.664;2024-03-23T11:50:37;11.50;99.90
18321;DHT22;54904;54.350;18.664;2024-03-23T11:53:14;11.60;99.90
18321;DHT22;54904;54.350;18.664;2024-03-23T11:55:52;11.60;99.90
18321;DHT22;54904;54.350;18.664;2024-03-23T11:58:20;11.60;99.90
18321;DHT22;54904;54.350;18.664;2024-03-23T12:00:52;11.70;99.90
18321;DHT22;54904;54.350;18.664;2024-03-23T12:03:18;11.70;99.90
18321;DHT22;54904;54.350;18.664;2024-03-23T12:05:50;11.90;99.90
18321;DHT22;54904;54.350;18.664;2024-03-23T12:08:20;12.00;99.90
18321;DHT22;54904;54.350;18.664;2024-03-23T12:10:49;12.10;99.90
18321;DHT22;54904;54.350;18.664;2024-03-23T12:13:21;12.20;99.90
18321;DHT22;54904;54.350;18.664;2024-03-23T12:15:50;12.50;99.90
18321;DHT22;54904;54.350;18.664;2024-03-23T12:18:18;12.60;99.90
18321;DHT22;54904;54.350;18.664;2024-03-23T12:20:50;12.60;99.90
18321;DHT22;54904;54.350;18.664;2024-03-23T12:23:16;12.50;99.90
18321;DHT22;54904;54.350;18.664;2024-03-23T12:25:43;12.30;99.90
18321;DHT22;54904;54.350;18.664;2024-03-23T12:28:09;12.20;99.90
18321;DHT22;54904;54.350;18.664;2024-03-23T12:30:39;12.10;99.90
18321;DHT22;54904;54.350;18.664;2024-03-23T12:33:05;12.00;99.90
18321;DHT22;54904;54.350;18.664;2024-03-23T12:35:32;11.90;99.90
18321;DHT22;54904;54.350;18.664;2024-03-23T12:37:59;11.80;99.90
18321;DHT22;54904;54.350;18.664;2024-03-23T12:40:26;11.70;99.90
18321;DHT22;54904;54.350;18.664;2024-03-23T12:42:53;11.60;99.90
18321;DHT22;54904;54.350;18.664;2024-03-23T12:45:20;11.50;99.90
18321;DHT22;54904;54.350;18.664;2024-03-23T12:47:47;11.40;99.90
18321;DHT22;54904;54.350;18.664;2024-03-23T12:50:15;11.30;99.90
18321;DHT22;54904;54.350;18.664;2024-03-23T12:52:41;11.20;99.90
18321;DHT22;54904;54.350;18.664;2024-03-23T12:55:08;11.20;99.90
18321;DHT22;54904;54.350;18.664;2024-03-23T12:57:34;11.10;99.90
18321;DHT22;54904;54.350;18.664;2024-03-23T13:00:01;11.10;99.90
18321;DHT22;54904;54.350;18.664;2024-03-23T13:02:29;11.10;99.90
18321;DHT22;54904;54.350;18.664;2024-03-23T13:04:57;11.00;99.90
18321;DHT22;54904;54.350;18.664;2024-03-23T13:07:26;11.00;99.90
18321;DHT22;54904;54.350;18.664;2024-03-23T13:09:54;11.00;99.90
18321;DHT22;54904;54.350;18.664;2024-03-23T13:12:20;11.00;99.90
18321;DHT22;54904;54.350;18.664;2024-03-23T13:14:47;11.00;99.90
18321;DHT22;54904;54.350;18.664;2024-03-23T13:17:13;11.00;99.90
18321;DHT22;54904;54.350;18.664;2024-03-23T13:19:40;10.90;99.90
18321;DHT22;54904;54.350;18.664;2024-03-23T13:22:08;10.90;99.90
18321;DHT22;54904;54.350;18.664;2024-03-23T13:24:37;10.90;99.90
18321;DHT22;54904;54.350;18.664;2024-03-23T13:27:04;11.00;99.90
18321;DHT22;54904;54.350;18.664;2024-03-23T13:29:33;10.90;99.90
18321;DHT22;54904;54.350;18.664;2024-03-23T13:32:00;10.80;99.90
18321;DHT22;54904;54.350;18.664;2024-03-23T13:34:27;10.80;99.90
18321;DHT22;54904;54.350;18.664;2024-03-23T13:36:55;10.80;99.90
18321;DHT22;54904;54.350;18.664;2024-03-23T13:39:25;10.80;99.90
18321;DHT22;54904;54.350;18.664;2024-03-23T13:41:51;10.80;99.90
18321;DHT22;54904;54.350;18.664;2024-03-23T13:44:18;10.90;99.90
18321;DHT22;54904;54.350;18.664;2024-03-23T13:46:44;10.80;99.90
18321;DHT22;54904;54.350;18.664;2024-03-23T13:49:26;10.80;99.90
18321;DHT22;54904;54.350;18.664;2024-03-23T13:51:53;10.80;99.90
18321;DHT22;54904;54.350;18.664;2024-03-23T13:54:20;10.80;99.90
18321;DHT22;54904;54.350;18.664;2024-03-23T13:56:49;10.80;99.90
18321;DHT22;54904;54.350;18.664;2024-03-23T13:59:16;10.80;99.90
18321;DHT22;54904;54.350;18.664;2024-03-23T14:01:43;10.80;99.90
18321;DHT22;54904;54.350;18.664;2024-03-23T14:04:11;10.80;99.90
18321;DHT22;54904;54.350;18.664;2024-03-23T14:06:37;10.80;99.90
18321;DHT22;54904;54.350;18.664;2024-03-23T14:09:05;10.80;99.90
18321;DHT22;54904;54.350;18.664;2024-03-23T14:11:31;10.80;99.90
18321;DHT22;54904;54.350;18.664;2024-03-23T14:14:02;10.80;99.90
18321;DHT22;54904;54.350;18.664;2024-03-23T14:16:29;10.80;99.90
18321;DHT22;54904;54.350;18.664;2024-03-23T14:18:56;10.80;99.90
18321;DHT22;54904;54.350;18.664;2024-03-23T14:21:22;10.80;99.90
18321;DHT22;54904;54.350;18.664;2024-03-23T14:23:49;10.80;99.90
18321;DHT22;54904;54.350;18.664;2024-03-23T14:26:15;10.80;99.90
18321;DHT22;54904;54.350;18.664;2024-03-23T14:28:43;10.90;99.90
18321;DHT22;54904;54.350;18.664;2024-03-23T14:31:10;10.90;99.90
18321;DHT22;54904;54.350;18.664;2024-03-23T14:33:37;10.90;99.90
18321;DHT22;54904;54.350;18.664;2024-03-23T14:36:05;10.90;99.90
18321;DHT22;54904;54.350;18.664;2024-03-23T14:38:32;10.90;99.90
18321;DHT22;54904;54.350;18.664;2024-03-23T14:40:58;10.90;99.90
18321;DHT22;54904;54.350;18.664;2024-03-23T14:43:26;10.90;99.90
18321;DHT22;54904;54.350;18.664;2024-03-23T14:46:10;10.90;99.90
18321;DHT22;54904;54.350;18.664;2024-03-23T14:48:39;10.90;99.90
18321;DHT22;54904;54.350;18.664;2024-03-23T14:51:05;10.90;99.90
18321;DHT22;54904;54.350;18.664;2024-03-23T14:53:35;10.80;99.90
18321;DHT22;54904;54.350;18.664;2024-03-23T14:56:02;10.80;99.90
18321;DHT22;54904;54.350;18.664;2024-03-23T14:58:29;10.70;99.90
18321;DHT22;54904;54.350;18.664;2024-03-23T15:01:00;10.70;99.90
18321;DHT22;54904;54.350;18.664;2024-03-23T15:03:29;10.60;99.90
18321;DHT22;54904;54.350;18.664;2024-03-23T15:05:55;10.50;99.90
18321;DHT22;54904;54.350;18.664;2024-03-23T15:08:23;10.50;99.90
18321;DHT22;54904;54.350;18.664;2024-03-23T15:10:50;10.50;99.90
18321;DHT22;54904;54.350;18.664;2024-03-23T15:13:17;10.40;99.90
18321;DHT22;54904;54.350;18.664;2024-03-23T15:15:44;10.40;99.90
18321;DHT22;54904;54.350;18.664;2024-03-23T15:18:11;10.40;99.90
18321;DHT22;54904;54.350;18.664;2024-03-23T15:20:42;10.40;99.90
18321;DHT22;54904;54.350;18.664;2024-03-23T15:23:17;10.40;99.90
18321;DHT22;54904;54.350;18.664;2024-03-23T15:25:44;10.40;99.90
18321;DHT22;54904;54.350;18.664;2024-03-23T15:28:10;10.40;99.90
18321;DHT22;54904;54.350;18.664;2024-03-23T15:30:37;10.30;99.90
18321;DHT22;54904;54.350;18.664;2024-03-23T15:33:03;10.30;99.90
18321;DHT22;54904;54.350;18.664;2024-03-23T15:35:30;10.40;99.90
18321;DHT22;54904;54.350;18.664;2024-03-23T15:37:58;10.30;99.90
18321;DHT22;54904;54.350;18.664;2024-03-23T15:40:25;10.30;99.90
18321;DHT22;54904;54.350;18.664;2024-03-23T15:42:51;10.30;99.90
18321;DHT22;54904;54.350;18.664;2024-03-23T15:45:18;10.30;99.90
18321;DHT22;54904;54.350;18.664;2024-03-23T15:47:44;10.30;99.90
18321;DHT22;54904;54.350;18.664;2024-03-23T15:50:12;10.30;99.90
18321;DHT22;54904;54.350;18.664;2024-03-23T15:52:38;10.30;99.90
18321;DHT22;54904;54.350;18.664;2024-03-23T15:55:07;10.30;99.90
18321;DHT22;54904;54.350;18.664;2024-03-23T15:57:36;10.30;99.90
18321;DHT22;54904;54.350;18.664;2024-03-23T16:00:04;10.30;99.90
18321;DHT22;54904;54.350;18.664;2024-03-23T16:02:37;10.30;99.90
18321;DHT22;54904;54.350;18.664;2024-03-23T16:05:05;10.30;99.90
18321;DHT22;54904;54.350;18.664;2024-03-23T16:07:33;10.30;99.90
18321;DHT22;54904;54.350;18.664;2024-03-23T16:10:00;10.30;99.90
18321;DHT22;54904;54.350;18.664;2024-03-23T16:12:32;10.40;99.90